メインページ
METAR-TAF:

METAR-TAF

空港 :

ベリンハム, ワシントン, アメリカ合衆国

緯度: 48-47-58N, 経度: 122-32-21W, 海抜: 48m

現時点の気象観測

当レポートは29分前の00:53(UTC)に作成
無風
気温 22°C
湿度 50%
気圧 1011 hPa
視程: 16.1km
晴天

METAR: KBLI 240053Z 00000KT 10SM CLR 22/11 A2986 RMK AO2 SLP118 T02220106

時間: 18:22 (01:22 UTC)

予報

当レポートは2時間2分前の23:20(UTC)に作成
予報は24日の 00時(UTC)から 24日の 24時(UTC)まで有効
西の風 5kt
視程: 10km
高度20000ftの雲は散在している
24日の 0400時(UTC)から
の風 10kt
視程: 10km
高度20000ftの雲は散在している
24日の 1200時(UTC)から
の風 12kt
視程: 10km
高度2000ftの雲は散在している
高度3000ftの千切れ雲あり
近辺でにわか雨
24日の 1600時(UTC)から
の風 12kt
視程: 10km
高度3000ftの千切れ雲あり
近辺でにわか雨

TAF: KBLI 232320Z 2400/2424 26005KT P6SM SCT200 FM240400 17010KT P6SM SCT200 FM241200 17012KT P6SM VCSH SCT020 BKN030 FM241600 17012KT P6SM VCSH BKN030

4,000以上の空港の気象観測と天気予報(METAR報とTAF報)

利用可能な観測所は地図上に黄色い丸と赤い丸で示す。

丸の上にカーソルを重ねると観測所名を参照できる。

次にクリックすると気象観測と天気予報を参照できる。

マップの切り替え:黒色「×」印の緑ボタンをクリックして拡大、「-」印の緑ボタンをクリックして縮小、緑色の三角印をクリックして隣りの地図に切り替え


METAR-TAF: